Time;durP1;ratioP1;P1;durP2;ratioP2;P2;SDS_P1;SDS_P2;PMS_P1;PMS_P2;Temp;Humidity;BMP_temperature;BMP_pressure;BME280_temperature;BME280_humidity;BME280_pressure;Samples;Min_cycle;Max_cycle;Signal;HPM_P1;HPM_P2
2021/06/05 00:01:01;;;;;;;5.27;4.60;;;19.90;95.40;;;;;;5093248;28;20585;-56
2021/06/05 00:03:26;;;;;;;5.83;4.40;;;19.80;95.40;;;;;;5093411;28;20178;-59
2021/06/05 00:05:58;;;;;;;6.50;4.60;;;19.80;95.90;;;;;;5094362;28;20211;-59
2021/06/05 00:08:26;;;;;;;8.50;4.63;;;19.80;95.90;;;;;;5094044;28;20636;-59
2021/06/05 00:10:56;;;;;;;6.57;4.27;;;19.70;96.10;;;;;;5091440;28;20194;-59
2021/06/05 00:13:28;;;;;;;6.33;4.30;;;19.60;96.10;;;;;;5093219;28;20170;-59
2021/06/05 00:15:54;;;;;;;4.90;4.40;;;19.60;96.30;;;;;;5092826;28;20176;-58
2021/06/05 00:18:20;;;;;;;6.43;4.60;;;19.50;96.50;;;;;;5094051;28;20205;-61
2021/06/05 00:20:46;;;;;;;8.20;4.50;;;19.50;96.60;;;;;;5093967;28;20633;-57
2021/06/05 00:23:16;;;;;;;4.50;4.10;;;19.50;96.50;;;;;;5093942;28;20165;-61
2021/06/05 00:25:43;;;;;;;6.10;4.70;;;19.50;96.50;;;;;;5094106;28;20533;-53
2021/06/05 00:28:09;;;;;;;4.90;4.40;;;19.50;96.90;;;;;;5093997;28;20295;-59
2021/06/05 00:30:35;;;;;;;6.33;4.67;;;19.50;97.10;;;;;;5093925;28;20693;-60
2021/06/05 00:33:01;;;;;;;6.33;5.73;;;19.50;97.20;;;;;;5093710;28;20170;-61
2021/06/05 00:35:28;;;;;;;6.77;5.80;;;19.40;97.40;;;;;;5093832;28;20270;-61
2021/06/05 00:37:54;;;;;;;7.93;6.40;;;19.40;97.60;;;;;;5093564;28;20213;-59
2021/06/05 00:40:22;;;;;;;9.23;6.40;;;19.30;97.70;;;;;;5093921;28;20754;-58
2021/06/05 00:42:47;;;;;;;8.27;7.37;;;19.30;98.00;;;;;;5093842;28;20193;-60
2021/06/05 00:45:15;;;;;;;7.87;7.07;;;19.30;98.00;;;;;;5093933;28;20242;-61
2021/06/05 00:47:41;;;;;;;7.17;6.47;;;19.70;98.30;;;;;;5093686;28;20202;-58
2021/06/05 00:50:09;;;;;;;9.07;7.23;;;19.40;98.30;;;;;;5093706;28;20177;-61
2021/06/05 00:52:35;;;;;;;7.70;7.00;;;19.40;98.70;;;;;;5093506;28;20181;-61
2021/06/05 00:55:03;;;;;;;8.07;7.27;;;19.40;98.80;;;;;;5093736;28;20182;-56
2021/06/05 00:57:29;;;;;;;8.80;6.77;;;19.40;98.90;;;;;;5093505;28;20208;-57
2021/06/05 00:59:54;;;;;;;7.67;5.67;;;19.30;99.00;;;;;;5093647;28;20172;-54
2021/06/05 01:02:20;;;;;;;8.63;5.77;;;19.30;99.30;;;;;;5093702;28;20173;-59
2021/06/05 01:04:45;;;;;;;5.87;5.27;;;19.30;99.70;;;;;;5093806;28;20222;-59
2021/06/05 01:07:24;;;;;;;7.73;5.80;;;19.30;99.90;;;;;;5093705;28;20282;-58
2021/06/05 01:09:58;;;;;;;6.60;5.30;;;19.30;99.90;;;;;;5093591;28;20535;-58
2021/06/05 01:12:33;;;;;;;6.10;5.50;;;19.30;99.90;;;;;;5093445;28;20178;-58
2021/06/05 01:15:22;;;;;;;7.80;5.77;;;19.20;99.90;;;;;;5097247;28;20624;-58
2021/06/05 01:17:53;;;;;;;5.97;5.47;;;19.20;99.90;;;;;;5096968;28;20583;-59
2021/06/05 01:20:50;;;;;;;6.43;5.87;;;19.60;99.90;;;;;;5097540;28;20217;-60
2021/06/05 01:23:38;;;;;;;6.57;5.87;;;19.20;99.90;;;;;;5074105;28;20223;-59
2021/06/05 01:26:28;;;;;;;6.70;5.67;;;19.10;99.90;;;;;;5097397;28;20224;-57
2021/06/05 01:29:06;;;;;;;6.33;5.40;;;19.10;99.90;;;;;;5097404;28;20267;-60
2021/06/05 01:31:48;;;;;;;5.60;5.10;;;19.10;99.90;;;;;;5097029;28;20500;-58
2021/06/05 01:34:15;;;;;;;6.07;5.40;;;19.10;99.90;;;;;;5097439;28;20561;-58
2021/06/05 01:36:44;;;;;;;6.20;5.60;;;19.10;99.90;;;;;;5097103;28;20207;-59
2021/06/05 01:39:13;;;;;;;5.30;4.53;;;19.10;99.90;;;;;;5096909;28;20203;-59
2021/06/05 01:41:41;;;;;;;5.87;5.37;;;19.10;99.90;;;;;;5096858;28;20168;-57
2021/06/05 01:44:08;;;;;;;6.80;5.60;;;19.10;99.90;;;;;;5096751;28;20166;-59
2021/06/05 01:46:38;;;;;;;5.70;5.17;;;19.10;99.90;;;;;;5096760;28;20196;-60
2021/06/05 01:49:05;;;;;;;5.70;5.20;;;19.10;99.90;;;;;;5097406;28;20183;-57
2021/06/05 01:51:31;;;;;;;5.90;5.20;;;19.10;99.90;;;;;;5096530;28;20260;-61
2021/06/05 01:54:04;;;;;;;5.50;5.00;;;19.00;99.90;;;;;;5097025;28;20193;-54
2021/06/05 01:56:43;;;;;;;5.70;5.10;;;19.00;99.90;;;;;;5096563;28;20193;-61
2021/06/05 01:59:11;;;;;;;5.30;4.90;;;19.10;99.90;;;;;;5096722;28;20212;-61
2021/06/05 02:01:37;;;;;;;5.43;4.93;;;19.10;99.90;;;;;;5096357;28;20175;-59
2021/06/05 02:04:02;;;;;;;5.70;5.10;;;19.10;99.90;;;;;;5096705;28;20172;-57
2021/06/05 02:06:28;;;;;;;6.70;5.20;;;19.10;99.90;;;;;;5096547;28;20189;-59
2021/06/05 02:08:55;;;;;;;6.27;5.67;;;19.10;99.90;;;;;;5096567;28;20185;-59
2021/06/05 02:11:24;;;;;;;5.70;5.20;;;19.00;99.90;;;;;;5096439;28;20174;-56
2021/06/05 02:13:57;;;;;;;5.80;5.30;;;19.00;99.90;;;;;;5096465;28;20178;-55
2021/06/05 02:16:26;;;;;;;6.73;4.87;;;18.80;99.90;;;;;;5096174;28;20199;-56
2021/06/05 02:18:59;;;;;;;7.80;5.90;;;18.70;99.90;;;;;;5096348;28;20213;-59
2021/06/05 02:21:28;;;;;;;7.00;6.30;;;18.70;99.90;;;;;;5096151;28;20175;-55
2021/06/05 02:24:00;;;;;;;7.40;6.00;;;18.40;99.90;;;;;;5095870;28;20675;-59
2021/06/05 02:26:26;;;;;;;6.77;5.90;;;18.30;99.90;;;;;;5096239;28;20194;-58
2021/06/05 02:28:56;;;;;;;6.30;5.70;;;18.30;99.90;;;;;;5096246;28;20199;-58
2021/06/05 02:31:22;;;;;;;6.37;5.70;;;18.40;99.90;;;;;;5095831;28;20207;-60
2021/06/05 02:33:49;;;;;;;6.00;5.40;;;18.40;99.90;;;;;;5096090;28;20173;-61
2021/06/05 02:36:15;;;;;;;6.53;5.50;;;18.50;99.90;;;;;;5095978;28;20184;-59
2021/06/05 02:38:45;;;;;;;6.40;5.80;;;18.50;99.90;;;;;;5094344;28;20291;-59
2021/06/05 02:41:14;;;;;;;9.03;5.63;;;18.50;99.90;;;;;;5095856;28;20186;-56
2021/06/05 02:43:42;;;;;;;6.63;5.80;;;18.50;99.90;;;;;;5095797;28;20170;-56
2021/06/05 02:46:19;;;;;;;6.20;5.60;;;18.50;99.90;;;;;;5095500;28;20219;-53
2021/06/05 02:48:50;;;;;;;6.77;5.87;;;18.60;99.90;;;;;;5095840;28;20180;-59
2021/06/05 02:51:18;;;;;;;6.80;6.10;;;18.60;99.90;;;;;;5095602;28;20229;-58
2021/06/05 02:53:44;;;;;;;6.40;5.80;;;18.60;99.90;;;;;;5095627;28;20188;-53
2021/06/05 02:56:11;;;;;;;6.47;5.93;;;18.60;99.90;;;;;;5095569;28;20176;-55
2021/06/05 02:58:37;;;;;;;6.60;5.90;;;18.60;99.90;;;;;;5095502;28;20206;-56
2021/06/05 03:01:05;;;;;;;6.17;5.57;;;18.60;99.90;;;;;;5095431;28;20174;-56
2021/06/05 03:03:31;;;;;;;7.53;5.57;;;18.60;99.90;;;;;;5095600;28;20225;-59
2021/06/05 03:05:57;;;;;;;5.73;5.23;;;18.60;99.90;;;;;;5095464;28;20178;-60
2021/06/05 03:08:26;;;;;;;6.03;5.40;;;18.60;99.90;;;;;;5095285;28;20198;-61
2021/06/05 03:10:52;;;;;;;5.67;5.17;;;18.70;99.90;;;;;;5095255;28;20622;-60
2021/06/05 03:13:19;;;;;;;5.40;4.90;;;18.70;99.90;;;;;;5095185;28;20177;-58
2021/06/05 03:15:46;;;;;;;7.97;5.23;;;18.70;99.90;;;;;;5095084;28;20174;-59
2021/06/05 03:18:13;;;;;;;6.33;5.03;;;18.80;99.90;;;;;;5095002;28;20239;-57
2021/06/05 03:20:42;;;;;;;5.50;5.00;;;18.70;99.90;;;;;;5095231;28;20175;-59
2021/06/05 03:23:10;;;;;;;4.90;4.40;;;18.80;99.90;;;;;;5093908;28;20647;-55
2021/06/05 03:25:36;;;;;;;5.67;5.10;;;18.80;99.90;;;;;;5095058;28;20172;-60
2021/06/05 03:28:02;;;;;;;5.50;5.00;;;18.80;99.90;;;;;;5094949;28;20197;-56
2021/06/05 03:30:29;;;;;;;5.87;5.27;;;18.80;99.90;;;;;;5094790;28;20176;-59
2021/06/05 03:32:55;;;;;;;5.50;4.80;;;18.80;99.90;;;;;;5093422;28;20267;-57
2021/06/05 03:35:21;;;;;;;5.30;4.90;;;18.70;99.90;;;;;;5094813;28;20214;-59
2021/06/05 03:37:46;;;;;;;5.57;4.87;;;18.70;99.90;;;;;;5094158;28;20227;-58
2021/06/05 03:40:17;;;;;;;6.50;5.10;;;18.70;99.90;;;;;;5094851;28;20236;-56
2021/06/05 03:42:43;;;;;;;6.37;4.70;;;18.70;99.90;;;;;;5094398;28;20185;-59
2021/06/05 03:45:09;;;;;;;5.87;4.47;;;18.70;99.90;;;;;;5094543;28;20167;-57
2021/06/05 03:47:36;;;;;;;7.67;4.63;;;18.70;99.90;;;;;;5094604;28;20200;-59
2021/06/05 03:50:02;;;;;;;6.07;4.73;;;18.70;99.90;;;;;;5094744;28;20180;-58
2021/06/05 03:52:28;;;;;;;5.93;5.00;;;18.60;99.90;;;;;;5094380;28;20182;-55
2021/06/05 03:54:55;;;;;;;5.73;5.23;;;18.60;99.90;;;;;;5094489;28;20537;-60
2021/06/05 03:57:22;;;;;;;6.67;6.07;;;18.70;99.90;;;;;;5094195;28;20207;-58
2021/06/05 03:59:48;;;;;;;6.20;5.60;;;18.50;99.90;;;;;;5094334;28;20174;-59
2021/06/05 04:02:14;;;;;;;6.60;5.40;;;18.40;99.90;;;;;;5094400;28;20181;-55
2021/06/05 04:04:41;;;;;;;5.87;5.37;;;18.30;99.90;;;;;;5094433;28;20197;-58
2021/06/05 04:07:09;;;;;;;5.87;5.30;;;18.40;99.90;;;;;;5094101;28;20199;-58
2021/06/05 04:09:35;;;;;;;6.37;5.43;;;18.40;99.90;;;;;;5094307;28;20233;-58
2021/06/05 04:12:02;;;;;;;6.23;5.63;;;18.50;99.90;;;;;;5094259;28;20278;-56
2021/06/05 04:14:27;;;;;;;6.00;5.40;;;18.60;99.90;;;;;;5094298;28;20638;-57
2021/06/05 04:16:53;;;;;;;5.93;4.83;;;18.60;99.90;;;;;;5093985;28;20202;-54
2021/06/05 04:19:18;;;;;;;5.30;4.80;;;18.70;99.90;;;;;;5094154;28;20721;-58
2021/06/05 04:21:44;;;;;;;5.67;5.17;;;18.70;99.90;;;;;;5094022;28;20583;-55
2021/06/05 04:24:09;;;;;;;7.10;5.90;;;18.70;99.90;;;;;;5094186;28;20204;-61
2021/06/05 04:26:35;;;;;;;6.30;5.70;;;18.70;99.90;;;;;;5092810;28;20287;-59
2021/06/05 04:29:01;;;;;;;6.10;5.50;;;18.70;99.90;;;;;;5093601;28;20658;-58
2021/06/05 04:31:27;;;;;;;6.07;5.50;;;18.40;99.90;;;;;;5093678;28;20189;-57
2021/06/05 04:33:52;;;;;;;6.03;5.43;;;18.10;99.90;;;;;;5092547;28;20175;-59
2021/06/05 04:36:18;;;;;;;5.90;5.30;;;18.00;99.90;;;;;;5093265;28;20552;-57
2021/06/05 04:38:44;;;;;;;7.47;5.70;;;18.00;99.90;;;;;;5093236;28;20359;-54
2021/06/05 04:41:13;;;;;;;6.37;5.60;;;18.10;99.90;;;;;;5085486;28;20178;-59
2021/06/05 04:43:38;;;;;;;5.70;5.20;;;18.30;99.90;;;;;;5088734;28;20198;-61
2021/06/05 04:46:06;;;;;;;6.00;5.47;;;18.40;99.90;;;;;;5087524;28;20179;-58
2021/06/05 04:48:32;;;;;;;6.43;5.50;;;18.50;99.90;;;;;;5095291;28;20174;-57
2021/06/05 04:50:58;;;;;;;6.90;5.20;;;18.60;99.90;;;;;;5098127;28;20240;-60
2021/06/05 04:53:24;;;;;;;6.37;5.20;;;18.60;99.90;;;;;;5098629;28;20219;-59
2021/06/05 04:55:51;;;;;;;6.43;5.83;;;18.60;99.90;;;;;;5098018;28;20236;-56
2021/06/05 04:58:17;;;;;;;6.73;5.90;;;18.60;99.90;;;;;;5097183;28;20215;-56
2021/06/05 05:00:45;;;;;;;6.83;6.13;;;18.70;99.90;;;;;;5097788;28;20205;-61
2021/06/05 05:03:12;;;;;;;6.63;6.03;;;18.70;99.90;;;;;;5097627;28;20524;-60
2021/06/05 05:05:38;;;;;;;7.07;6.37;;;18.70;99.90;;;;;;5098300;28;20191;-57
2021/06/05 05:08:05;;;;;;;7.30;6.57;;;18.70;99.90;;;;;;5097499;28;20190;-53
2021/06/05 05:10:36;;;;;;;6.20;5.60;;;18.70;99.90;;;;;;5097709;28;20184;-60
2021/06/05 05:13:03;;;;;;;6.93;6.23;;;18.70;99.90;;;;;;5097823;28;20176;-58
2021/06/05 05:15:29;;;;;;;6.37;5.77;;;18.70;99.90;;;;;;5097797;28;20180;-59
2021/06/05 05:17:54;;;;;;;6.93;6.17;;;18.90;99.90;;;;;;5097342;28;20211;-59
2021/06/05 05:20:25;;;;;;;6.80;6.10;;;18.90;99.90;;;;;;5097007;28;20174;-57
2021/06/05 05:22:51;;;;;;;7.00;6.27;;;19.00;99.90;;;;;;5097474;28;20176;-59
2021/06/05 05:25:17;;;;;;;6.83;6.13;;;19.10;99.90;;;;;;5097462;28;20173;-58
2021/06/05 05:27:42;;;;;;;6.13;5.63;;;19.20;99.90;;;;;;5097663;28;20200;-60
2021/06/05 05:30:13;;;;;;;6.33;5.73;;;19.30;99.90;;;;;;5097722;28;20183;-59
2021/06/05 05:32:39;;;;;;;6.93;6.33;;;19.40;99.90;;;;;;5096968;28;20192;-57
2021/06/05 05:35:05;;;;;;;8.73;6.30;;;19.50;99.90;;;;;;5097755;28;20180;-61
2021/06/05 05:37:31;;;;;;;7.17;6.47;;;19.40;99.90;;;;;;5096720;28;20239;-55
2021/06/05 05:39:56;;;;;;;8.87;8.00;;;19.40;99.90;;;;;;5097136;28;20525;-58
2021/06/05 05:42:22;;;;;;;8.60;7.80;;;19.50;99.90;;;;;;5095951;28;20174;-58
2021/06/05 05:44:47;;;;;;;7.20;6.60;;;19.80;99.90;;;;;;5095629;28;20242;-57
2021/06/05 05:47:13;;;;;;;8.60;7.60;;;19.80;99.90;;;;;;5096836;28;20284;-60
2021/06/05 05:49:38;;;;;;;8.43;7.57;;;19.80;99.90;;;;;;5095887;28;20178;-57
2021/06/05 05:52:04;;;;;;;8.17;7.37;;;19.90;99.90;;;;;;5096656;28;20518;-60
2021/06/05 05:54:30;;;;;;;5.90;5.40;;;20.00;99.90;;;;;;5096701;28;20507;-57
2021/06/05 05:56:56;;;;;;;7.50;5.50;;;19.80;99.90;;;;;;5096522;28;20194;-55
2021/06/05 05:59:22;;;;;;;6.20;5.63;;;19.70;99.90;;;;;;5096309;28;20205;-58
2021/06/05 06:01:48;;;;;;;6.60;6.00;;;19.80;99.90;;;;;;5096495;28;20170;-60
2021/06/05 06:04:14;;;;;;;6.87;5.83;;;19.80;99.90;;;;;;5096582;28;20213;-61
2021/06/05 06:06:40;;;;;;;6.10;5.60;;;19.90;99.90;;;;;;5096588;28;20276;-59
2021/06/05 06:09:06;;;;;;;7.20;6.23;;;20.00;99.90;;;;;;5096479;28;20212;-60
2021/06/05 06:11:32;;;;;;;6.70;5.60;;;19.90;99.90;;;;;;5096242;28;20185;-56
2021/06/05 06:13:58;;;;;;;7.50;6.50;;;19.80;99.90;;;;;;5096424;28;20177;-58
2021/06/05 06:16:24;;;;;;;8.23;7.53;;;19.80;99.90;;;;;;5096335;28;20271;-54
2021/06/05 06:18:50;;;;;;;9.43;7.70;;;19.70;99.90;;;;;;5096227;28;20237;-56
2021/06/05 06:21:19;;;;;;;8.13;7.37;;;19.50;99.90;;;;;;5096266;28;20206;-61
2021/06/05 06:23:46;;;;;;;8.53;7.73;;;19.60;99.90;;;;;;5096193;28;20261;-60
2021/06/05 06:26:20;;;;;;;7.47;6.77;;;19.50;99.90;;;;;;5096286;28;20175;-61
2021/06/05 06:28:46;;;;;;;9.10;8.23;;;19.70;99.90;;;;;;5096294;28;20177;-58
2021/06/05 06:31:14;;;;;;;8.73;7.83;;;19.90;99.90;;;;;;5094606;28;20177;-58
2021/06/05 06:33:40;;;;;;;10.23;7.73;;;20.00;99.90;;;;;;5095893;28;20261;-61
2021/06/05 06:36:06;;;;;;;9.00;8.10;;;20.00;99.90;;;;;;5095834;28;20213;-57
2021/06/05 06:38:36;;;;;;;8.93;8.03;;;20.00;99.90;;;;;;5095812;28;20213;-61
2021/06/05 06:41:06;;;;;;;7.50;6.80;;;20.10;99.90;;;;;;5095812;28;20634;-60
2021/06/05 06:43:32;;;;;;;9.03;8.07;;;20.30;99.90;;;;;;5095886;28;20518;-58
2021/06/05 06:46:01;;;;;;;8.20;7.50;;;20.50;99.90;;;;;;5095835;28;20177;-57
2021/06/05 06:48:27;;;;;;;8.43;7.53;;;20.60;99.90;;;;;;5095801;28;20189;-58
2021/06/05 06:50:53;;;;;;;8.00;7.20;;;20.80;99.90;;;;;;5095519;28;20178;-59
2021/06/05 06:53:19;;;;;;;8.97;8.07;;;20.90;99.90;;;;;;5095687;28;20174;-59
2021/06/05 06:55:45;;;;;;;8.33;7.57;;;20.90;99.90;;;;;;5095878;28;20181;-59
2021/06/05 06:58:11;;;;;;;8.53;7.73;;;20.90;99.90;;;;;;5095542;28;20202;-56
2021/06/05 07:00:40;;;;;;;9.20;7.83;;;21.00;99.90;;;;;;5095585;28;20181;-59
2021/06/05 07:03:06;;;;;;;8.80;7.60;;;21.10;99.90;;;;;;5095445;28;20178;-59
2021/06/05 07:05:32;;;;;;;8.90;8.00;;;21.20;99.90;;;;;;5095323;28;20192;-60
2021/06/05 07:08:08;;;;;;;9.27;8.33;;;21.10;99.90;;;;;;5095252;28;20198;-58
2021/06/05 07:10:34;;;;;;;8.30;7.60;;;21.20;99.90;;;;;;5094696;28;20174;-58
2021/06/05 07:13:00;;;;;;;7.77;7.17;;;21.20;99.90;;;;;;5094644;28;20174;-57
2021/06/05 07:15:25;;;;;;;7.90;7.20;;;21.30;99.90;;;;;;5095194;28;20182;-60
2021/06/05 07:17:51;;;;;;;8.00;7.30;;;21.50;99.90;;;;;;5095094;28;20201;-59
2021/06/05 07:20:17;;;;;;;8.43;7.63;;;21.70;99.90;;;;;;5095085;28;20180;-56
2021/06/05 07:22:43;;;;;;;8.23;7.40;;;21.80;99.90;;;;;;5095064;28;20186;-57
2021/06/05 07:25:09;;;;;;;8.23;7.43;;;21.90;99.90;;;;;;5095142;28;20170;-54
2021/06/05 07:27:34;;;;;;;8.27;7.47;;;22.00;99.90;;;;;;5095012;28;20304;-57
2021/06/05 07:30:00;;;;;;;7.57;6.75;;;22.10;99.90;;;;;;5094830;28;20633;-60
2021/06/05 07:32:25;;;;;;;10.88;8.02;;;22.30;99.90;;;;;;5094724;28;20177;-59
2021/06/05 07:34:51;;;;;;;7.78;7.07;;;22.50;99.90;;;;;;5094857;28;20529;-59
2021/06/05 07:37:20;;;;;;;7.75;7.15;;;22.60;99.90;;;;;;5076511;28;20549;-56
2021/06/05 07:39:46;;;;;;;9.23;8.43;;;22.90;99.90;;;;;;5094968;28;20178;-59
2021/06/05 07:42:12;;;;;;;9.85;8.75;;;23.00;99.90;;;;;;5094450;28;20181;-56
2021/06/05 07:44:38;;;;;;;8.43;7.72;;;23.00;99.90;;;;;;5094636;28;20173;-60
2021/06/05 07:47:04;;;;;;;8.63;7.82;;;23.00;99.90;;;;;;5094544;28;20254;-54
2021/06/05 07:49:34;;;;;;;8.50;7.80;;;22.80;99.90;;;;;;5093404;28;20577;-59
2021/06/05 07:52:01;;;;;;;8.95;8.15;;;22.70;99.90;;;;;;5094202;28;20213;-59
2021/06/05 07:54:27;;;;;;;8.98;8.13;;;22.70;99.90;;;;;;5093435;28;20586;-57
2021/06/05 07:56:53;;;;;;;9.20;8.30;;;22.70;99.90;;;;;;5094515;28;20729;-56
2021/06/05 07:59:23;;;;;;;10.00;7.97;;;22.80;99.90;;;;;;5094536;28;20708;-58
2021/06/05 08:01:49;;;;;;;9.32;8.30;;;23.10;99.90;;;;;;5094350;28;20176;-57
2021/06/05 08:04:17;;;;;;;9.70;8.80;;;23.40;99.90;;;;;;5094505;28;20177;-61
2021/06/05 08:06:43;;;;;;;8.63;7.43;;;23.50;99.90;;;;;;5094252;28;20198;-61
2021/06/05 08:09:09;;;;;;;7.40;6.80;;;23.50;99.90;;;;;;5094376;28;20265;-56
2021/06/05 08:11:34;;;;;;;8.38;7.57;;;23.60;99.90;;;;;;5094108;28;20249;-59
2021/06/05 08:14:00;;;;;;;7.63;6.72;;;23.70;99.90;;;;;;5094171;28;20209;-59
2021/06/05 08:16:26;;;;;;;7.40;6.80;;;24.00;99.90;;;;;;5094001;28;20220;-57
2021/06/05 08:18:52;;;;;;;8.45;7.65;;;24.30;99.90;;;;;;5094007;28;20560;-57
2021/06/05 08:21:20;;;;;;;8.43;7.63;;;24.50;99.90;;;;;;5094082;28;20223;-57
2021/06/05 08:23:47;;;;;;;17.27;9.10;;;24.60;99.90;;;;;;5093836;28;20181;-61
2021/06/05 08:26:16;;;;;;;9.45;8.45;;;24.70;99.90;;;;;;5093931;28;20181;-57
2021/06/05 08:28:42;;;;;;;9.02;7.90;;;24.80;99.90;;;;;;5094371;28;20176;-60
2021/06/05 08:31:12;;;;;;;8.77;7.97;;;24.90;99.90;;;;;;5093839;28;20252;-58
2021/06/05 08:33:38;;;;;;;7.78;6.97;;;25.00;99.90;;;;;;5093949;28;20181;-57
2021/06/05 08:36:05;;;;;;;8.38;7.45;;;25.10;99.90;;;;;;5093857;28;20588;-56
2021/06/05 08:38:31;;;;;;;8.52;7.72;;;25.30;99.90;;;;;;5093616;28;20687;-61
2021/06/05 08:41:05;;;;;;;9.75;8.27;;;25.40;99.90;;;;;;5093621;28;20511;-60
2021/06/05 08:43:37;;;;;;;9.77;8.88;;;25.60;99.90;;;;;;5094007;28;20170;-58
2021/06/05 08:46:08;;;;;;;8.15;7.32;;;25.70;99.90;;;;;;5093809;28;20265;-59
2021/06/05 08:48:34;;;;;;;8.65;7.93;;;25.80;99.90;;;;;;5094027;28;20228;-58
2021/06/05 08:51:32;;;;;;;8.57;7.78;;;25.80;99.90;;;;;;5093713;28;20174;-60
2021/06/05 08:54:11;;;;;;;9.70;8.68;;;25.80;99.90;;;;;;5093915;28;20200;-61
2021/06/05 08:56:40;;;;;;;8.50;7.43;;;25.50;99.90;;;;;;5093827;28;20193;-59
2021/06/05 08:59:06;;;;;;;7.63;7.00;;;25.50;99.90;;;;;;5093895;28;20260;-56
2021/06/05 09:01:41;;;;;;;7.82;7.03;;;25.40;99.90;;;;;;5093457;28;20202;-56
2021/06/05 09:04:13;;;;;;;9.18;8.23;;;25.50;99.90;;;;;;5094061;28;20677;-60
2021/06/05 09:06:58;;;;;;;6.75;6.15;;;25.50;99.90;;;;;;5093693;28;20194;-59
2021/06/05 09:09:36;;;;;;;7.88;7.18;;;25.70;99.90;;;;;;5093515;28;20649;-54
2021/06/05 09:12:04;;;;;;;9.00;8.20;;;25.60;99.90;;;;;;5093531;28;20178;-59
2021/06/05 09:14:30;;;;;;;8.23;7.28;;;25.40;99.90;;;;;;5093371;28;20702;-60
2021/06/05 09:16:58;;;;;;;7.60;6.90;;;25.30;99.90;;;;;;5093619;28;20281;-57
2021/06/05 09:19:35;;;;;;;8.05;7.35;;;25.30;99.90;;;;;;5093301;28;20610;-59
2021/06/05 09:22:19;;;;;;;6.72;5.97;;;25.20;99.90;;;;;;5093324;28;20181;-59
2021/06/05 09:24:49;;;;;;;7.85;7.10;;;24.90;99.90;;;;;;5093399;28;20537;-60
2021/06/05 09:27:17;;;;;;;7.22;6.53;;;25.00;99.90;;;;;;5093520;28;20661;-57
2021/06/05 09:29:54;;;;;;;7.10;6.13;;;25.00;99.90;;;;;;5093600;28;20177;-59
2021/06/05 09:32:30;;;;;;;7.25;6.55;;;25.10;99.90;;;;;;5093316;28;20162;-61
2021/06/05 09:35:05;;;;;;;7.78;5.80;;;24.90;99.90;;;;;;5095171;28;20173;-55
2021/06/05 09:37:40;;;;;;;6.72;6.03;;;24.90;99.90;;;;;;5097158;28;20209;-56
2021/06/05 09:40:30;;;;;;;6.78;6.18;;;25.10;99.90;;;;;;5097280;28;20170;-58
2021/06/05 09:43:17;;;;;;;6.75;6.15;;;25.30;99.90;;;;;;5096707;28;20295;-57
2021/06/05 09:45:45;;;;;;;8.18;7.40;;;25.50;99.90;;;;;;5096849;28;20283;-61
2021/06/05 09:48:20;;;;;;;7.35;6.65;;;25.50;99.90;;;;;;5097034;28;20227;-59
2021/06/05 09:50:48;;;;;;;7.45;6.75;;;25.40;99.90;;;;;;5096845;28;20169;-58
2021/06/05 09:53:35;;;;;;;8.80;7.25;;;25.20;99.90;;;;;;5096809;28;20189;-56
2021/06/05 09:56:03;;;;;;;7.30;6.70;;;25.20;99.90;;;;;;5096813;28;20178;-61
2021/06/05 09:58:36;;;;;;;6.60;6.00;;;25.20;99.90;;;;;;5096795;28;20224;-60
2021/06/05 10:01:15;;;;;;;7.13;6.43;;;25.00;99.90;;;;;;5096757;28;20170;-60
2021/06/05 10:03:41;;;;;;;6.47;5.78;;;24.80;99.90;;;;;;5096772;28;20196;-60
2021/06/05 10:06:43;;;;;;;9.43;7.00;;;24.50;99.90;;;;;;5096571;28;20522;-60
2021/06/05 10:09:29;;;;;;;7.22;6.63;;;24.20;99.90;;;;;;5054272;28;20186;-56
2021/06/05 10:12:00;;;;;;;8.35;7.45;;;24.20;99.90;;;;;;5054076;28;20262;-56
2021/06/05 10:14:52;;;;;;;8.48;7.68;;;24.10;99.90;;;;;;5054257;28;20254;-58
2021/06/05 10:17:30;;;;;;;7.82;7.10;;;24.00;99.90;;;;;;5046199;28;20238;-57
2021/06/05 10:20:04;;;;;;;8.52;7.57;;;23.90;99.90;;;;;;5054091;28;20183;-58
2021/06/05 10:22:31;;;;;;;9.07;8.18;;;24.10;99.90;;;;;;5053638;28;20178;-59
2021/06/05 10:25:03;;;;;;;9.90;9.00;;;24.10;99.90;;;;;;5054007;28;20197;-60
2021/06/05 10:27:36;;;;;;;8.57;7.78;;;23.90;99.90;;;;;;5053603;28;20191;-56
2021/06/05 10:30:12;;;;;;;8.52;7.63;;;23.90;99.90;;;;;;5054009;28;20294;-60
2021/06/05 10:32:41;;;;;;;8.68;7.97;;;23.90;99.90;;;;;;5053664;28;20176;-59
2021/06/05 10:35:31;;;;;;;9.27;8.40;;;23.90;99.90;;;;;;5053811;28;20172;-59
2021/06/05 10:38:22;;;;;;;10.68;9.70;;;23.90;99.90;;;;;;5053172;28;20215;-60
2021/06/05 10:40:50;;;;;;;10.68;9.27;;;23.90;99.90;;;;;;5053819;28;20607;-60
2021/06/05 10:43:15;;;;;;;10.90;9.93;;;23.60;99.90;;;;;;5053400;28;20251;-56
2021/06/05 10:45:44;;;;;;;11.18;10.18;;;23.50;99.90;;;;;;5078246;28;20204;-58
2021/06/05 10:48:32;;;;;;;11.15;10.15;;;23.30;99.90;;;;;;5095705;28;20272;-57
2021/06/05 10:51:12;;;;;;;10.75;9.73;;;23.20;99.90;;;;;;5095665;28;20174;-59
2021/06/05 10:53:44;;;;;;;11.93;10.68;;;23.30;99.90;;;;;;5095830;28;20178;-61
2021/06/05 10:56:20;;;;;;;11.70;10.50;;;23.30;99.90;;;;;;5095697;28;20162;-58
2021/06/05 10:58:52;;;;;;;11.13;9.88;;;23.10;99.90;;;;;;5095981;28;20284;-59
2021/06/05 11:01:21;;;;;;;11.98;10.98;;;23.20;99.90;;;;;;5095388;28;20194;-59
2021/06/05 11:03:53;;;;;;;10.63;9.63;;;23.20;99.90;;;;;;5095359;28;20181;-54
2021/06/05 11:06:24;;;;;;;12.02;10.82;;;23.10;99.90;;;;;;5095481;28;20184;-59
2021/06/05 11:08:53;;;;;;;12.00;10.82;;;23.20;99.90;;;;;;5095612;28;20170;-60
2021/06/05 11:11:36;;;;;;;11.85;10.82;;;23.20;99.90;;;;;;5095245;28;20197;-59
2021/06/05 11:14:30;;;;;;;12.38;11.20;;;23.20;99.90;;;;;;5095203;28;20653;-58
2021/06/05 11:16:59;;;;;;;12.23;11.07;;;23.40;99.90;;;;;;5095413;28;20198;-57
2021/06/05 11:19:31;;;;;;;12.25;11.15;;;23.40;99.90;;;;;;5093740;28;20236;-58
2021/06/05 11:22:12;;;;;;;12.23;11.02;;;23.40;99.90;;;;;;5094954;28;20170;-56
2021/06/05 11:24:40;;;;;;;10.90;9.90;;;23.50;99.90;;;;;;5095289;28;20698;-60
2021/06/05 11:27:12;;;;;;;10.07;9.18;;;23.60;99.90;;;;;;5095288;28;20190;-59
2021/06/05 11:29:37;;;;;;;12.88;11.68;;;23.80;99.90;;;;;;5095184;28;20536;-61
2021/06/05 11:32:18;;;;;;;11.60;10.60;;;23.90;99.90;;;;;;5094775;28;20660;-57
2021/06/05 11:34:43;;;;;;;13.55;12.13;;;23.90;99.90;;;;;;5094910;28;20586;-56
2021/06/05 11:37:15;;;;;;;10.80;9.75;;;23.90;99.90;;;;;;5094762;28;20737;-55
2021/06/05 11:40:04;;;;;;;10.50;9.60;;;24.10;99.90;;;;;;5094923;28;20197;-60
2021/06/05 11:42:30;;;;;;;12.70;11.60;;;24.30;99.90;;;;;;5094488;28;20541;-58
2021/06/05 11:44:55;;;;;;;12.60;11.30;;;24.50;99.90;;;;;;5094780;28;20638;-59
2021/06/05 11:47:21;;;;;;;13.07;11.77;;;24.60;99.90;;;;;;5094592;28;20201;-60
2021/06/05 11:50:12;;;;;;;12.52;11.32;;;24.50;99.90;;;;;;5094762;28;20646;-59
2021/06/05 11:52:49;;;;;;;12.75;11.55;;;24.60;99.90;;;;;;5094545;28;20170;-58
2021/06/05 11:55:20;;;;;;;13.60;12.23;;;24.60;99.90;;;;;;5094905;28;20180;-59
2021/06/05 11:57:52;;;;;;;11.73;10.52;;;24.50;99.90;;;;;;5094181;28;20232;-59
2021/06/05 12:00:24;;;;;;;12.43;11.32;;;24.60;99.90;;;;;;5094367;28;20204;-58
2021/06/05 12:03:04;;;;;;;12.60;11.50;;;24.90;99.90;;;;;;5094425;28;20492;-61
2021/06/05 12:05:34;;;;;;;12.52;11.40;;;24.90;99.90;;;;;;5094534;28;20174;-57
2021/06/05 12:07:59;;;;;;;12.60;11.40;;;25.00;99.90;;;;;;5094191;28;20194;-55
2021/06/05 12:10:34;;;;;;;10.25;8.98;;;25.00;99.90;;;;;;5094472;28;20182;-59
2021/06/05 12:13:01;;;;;;;10.13;9.23;;;25.10;99.90;;;;;;5093912;28;20193;-53
2021/06/05 12:15:39;;;;;;;9.63;8.73;;;25.50;99.90;;;;;;5094166;28;20166;-59
2021/06/05 12:18:20;;;;;;;11.48;10.48;;;25.90;99.90;;;;;;5094049;28;20280;-60
2021/06/05 12:20:58;;;;;;;11.50;10.50;;;26.20;99.90;;;;;;5094261;28;20170;-59
2021/06/05 12:23:38;;;;;;;9.80;7.57;;;26.30;99.90;;;;;;5094289;28;20197;-59
2021/06/05 12:26:09;;;;;;;9.00;8.18;;;26.70;99.90;;;;;;5094128;28;20227;-58
2021/06/05 12:28:43;;;;;;;5.68;5.18;;;27.10;99.90;;;;;;5094372;28;20177;-58
2021/06/05 12:31:30;;;;;;;5.63;5.13;;;27.40;99.90;;;;;;5093972;28;20637;-59
2021/06/05 12:34:06;;;;;;;6.20;5.70;;;27.80;99.90;;;;;;5094064;28;20190;-59
2021/06/05 12:36:39;;;;;;;7.32;5.55;;;28.00;99.90;;;;;;5094040;28;20279;-59
2021/06/05 12:39:18;;;;;;;5.82;5.32;;;28.00;99.90;;;;;;5093890;28;20209;-57
2021/06/05 12:41:47;;;;;;;6.72;5.68;;;28.00;99.90;;;;;;5093906;28;20201;-59
2021/06/05 12:44:21;;;;;;;6.75;6.15;;;27.90;99.90;;;;;;5093979;28;20174;-58
2021/06/05 12:46:47;;;;;;;4.63;4.18;;;27.80;99.90;;;;;;5093755;28;20185;-59
2021/06/05 12:49:16;;;;;;;6.78;6.07;;;27.70;99.90;;;;;;5093875;28;20177;-60
2021/06/05 12:51:54;;;;;;;6.57;5.68;;;27.60;99.90;;;;;;5093799;28;20172;-61
2021/06/05 12:54:29;;;;;;;4.78;4.38;;;27.80;99.90;;;;;;5093894;28;20186;-61
2021/06/05 12:56:56;;;;;;;4.57;4.18;;;27.80;99.90;;;;;;5094092;28;20232;-56
2021/06/05 12:59:34;;;;;;;4.57;4.10;;;27.70;99.90;;;;;;5093671;28;20198;-56